createdAt,value
2023-04-30T00:02:29.368Z,4.97
2023-04-30T00:05:32.780Z,6.20
2023-04-30T00:08:37.094Z,5.37
2023-04-30T00:11:40.164Z,5.90
2023-04-30T00:14:43.177Z,5.70
2023-04-30T00:17:46.256Z,6.03
2023-04-30T00:20:51.863Z,4.87
2023-04-30T00:23:56.272Z,5.73
2023-04-30T00:26:59.276Z,5.43
2023-04-30T00:30:02.313Z,5.43
2023-04-30T00:33:06.932Z,5.27
2023-04-30T00:36:09.942Z,5.23
2023-04-30T00:39:14.266Z,4.70
2023-04-30T00:42:20.018Z,4.43
2023-04-30T00:45:24.675Z,4.70
2023-04-30T00:48:28.839Z,4.93
2023-04-30T00:51:33.900Z,5.03
2023-04-30T00:54:38.488Z,4.63
2023-04-30T00:57:41.908Z,5.17
2023-04-30T01:00:47.145Z,4.67
2023-04-30T01:03:50.488Z,4.80
2023-04-30T01:06:53.678Z,4.03
2023-04-30T01:09:58.498Z,5.03
2023-04-30T01:13:11.530Z,4.37
2023-04-30T01:16:20.669Z,4.83
2023-04-30T01:19:40.229Z,4.33
2023-04-30T01:22:52.003Z,4.77
2023-04-30T01:26:14.430Z,3.93
2023-04-30T01:29:23.225Z,5.03
2023-04-30T01:32:26.738Z,4.57
2023-04-30T01:35:45.685Z,4.83
2023-04-30T01:39:19.354Z,4.60
2023-04-30T01:42:24.511Z,5.37
2023-04-30T01:46:03.265Z,4.33
2023-04-30T01:49:18.590Z,5.07
2023-04-30T01:52:33.809Z,4.97
2023-04-30T01:55:52.031Z,4.97
2023-04-30T01:58:58.768Z,5.73
2023-04-30T02:02:06.298Z,5.10
2023-04-30T02:05:10.277Z,5.30
2023-04-30T02:08:15.604Z,5.57
2023-04-30T02:11:18.774Z,4.97
2023-04-30T02:14:23.916Z,5.07
2023-04-30T02:17:31.339Z,6.80
2023-04-30T02:20:34.910Z,5.20
2023-04-30T02:23:37.975Z,6.57
2023-04-30T02:26:41.136Z,9.77
2023-04-30T02:29:44.296Z,6.90
2023-04-30T02:32:48.950Z,5.83
2023-04-30T02:35:52.003Z,6.20
2023-04-30T02:38:54.991Z,5.10
2023-04-30T02:41:58.038Z,6.00
2023-04-30T02:45:01.355Z,5.03
2023-04-30T02:48:06.092Z,5.97
2023-04-30T02:51:09.758Z,6.83
2023-04-30T02:54:12.917Z,6.93
2023-04-30T02:57:15.985Z,7.47
2023-04-30T03:00:19.211Z,6.60
2023-04-30T03:03:24.025Z,6.90
2023-04-30T03:06:27.746Z,6.20
2023-04-30T03:09:31.581Z,5.63
2023-04-30T03:12:34.693Z,6.60
2023-04-30T03:15:38.335Z,6.77
2023-04-30T03:18:43.160Z,6.83
2023-04-30T03:21:46.468Z,5.97
2023-04-30T03:24:49.778Z,7.20
2023-04-30T03:27:52.816Z,6.40
2023-04-30T03:30:56.168Z,6.53
2023-04-30T03:34:00.592Z,7.50
2023-04-30T03:37:04.098Z,6.33
2023-04-30T03:40:09.264Z,6.23
2023-04-30T03:43:13.690Z,6.40
2023-04-30T03:46:16.933Z,5.80
2023-04-30T03:49:22.119Z,6.53
2023-04-30T03:52:26.475Z,6.30
2023-04-30T03:55:29.999Z,6.87
2023-04-30T03:58:33.306Z,5.50
2023-04-30T04:01:36.720Z,6.03
2023-04-30T04:04:41.490Z,6.70
2023-04-30T04:07:47.312Z,7.07
2023-04-30T04:10:50.856Z,6.83
2023-04-30T04:13:54.053Z,6.63
2023-04-30T04:17:00.111Z,8.03
2023-04-30T04:20:07.352Z,6.27
2023-04-30T04:23:11.625Z,6.70
2023-04-30T04:26:14.981Z,6.20
2023-04-30T04:29:18.064Z,6.57
2023-04-30T04:32:22.782Z,6.70
2023-04-30T04:35:27.553Z,7.20
2023-04-30T04:38:31.006Z,6.23
2023-04-30T04:41:35.851Z,6.63
2023-04-30T04:44:41.298Z,6.73
2023-04-30T04:47:44.785Z,5.83
2023-04-30T04:50:49.746Z,7.07
2023-04-30T04:53:52.791Z,7.40
2023-04-30T04:56:56.524Z,6.93
2023-04-30T05:00:00.976Z,6.53
2023-04-30T05:03:04.350Z,6.13
2023-04-30T05:06:09.277Z,6.77
2023-04-30T05:09:12.367Z,6.90
2023-04-30T05:12:15.803Z,6.07
2023-04-30T05:15:19.099Z,6.43
2023-04-30T05:18:22.258Z,7.83
2023-04-30T05:21:30.221Z,7.33
2023-04-30T05:24:34.163Z,8.10
2023-04-30T05:27:37.238Z,6.57
2023-04-30T05:30:40.440Z,6.90
2023-04-30T05:33:43.519Z,6.23
2023-04-30T05:36:47.841Z,7.57
2023-04-30T05:39:50.891Z,6.20
2023-04-30T05:42:54.367Z,6.60
2023-04-30T05:45:57.463Z,6.30
2023-04-30T05:49:00.502Z,6.17
2023-04-30T05:52:05.253Z,6.70
2023-04-30T05:55:11.248Z,6.63
2023-04-30T05:58:14.813Z,6.50
2023-04-30T06:01:19.324Z,6.63
2023-04-30T06:04:22.357Z,6.23
2023-04-30T06:07:26.748Z,6.70
2023-04-30T06:10:30.989Z,6.20
2023-04-30T06:13:34.472Z,7.03
2023-04-30T06:16:37.565Z,8.30
2023-04-30T06:19:40.715Z,6.67
2023-04-30T06:22:45.315Z,6.03
2023-04-30T06:25:48.501Z,6.83
2023-04-30T06:28:51.546Z,6.73
2023-04-30T06:31:54.733Z,6.43
2023-04-30T06:34:57.789Z,6.30
2023-04-30T06:38:02.215Z,6.90
2023-04-30T06:41:05.353Z,6.00
2023-04-30T06:44:09.329Z,6.30
2023-04-30T06:47:12.484Z,6.53
2023-04-30T06:50:15.870Z,5.70
2023-04-30T06:53:20.286Z,6.50
2023-04-30T06:56:23.422Z,6.17
2023-04-30T06:59:26.624Z,6.83
2023-04-30T07:02:29.718Z,5.90
2023-04-30T07:05:33.442Z,5.87
2023-04-30T07:08:38.609Z,5.67
2023-04-30T07:11:42.105Z,5.90
2023-04-30T07:14:45.514Z,6.33
2023-04-30T07:17:49.549Z,6.43
2023-04-30T07:20:52.608Z,6.13
2023-04-30T07:23:57.466Z,6.13
2023-04-30T07:27:02.944Z,6.17
2023-04-30T07:30:08.313Z,6.47
2023-04-30T07:33:11.910Z,6.00
2023-04-30T07:36:15.258Z,6.60
2023-04-30T07:39:19.751Z,5.90
2023-04-30T07:42:23.262Z,6.00
2023-04-30T07:45:26.714Z,5.90
2023-04-30T07:48:29.818Z,5.37
2023-04-30T07:51:34.002Z,6.13
2023-04-30T07:54:40.086Z,7.33
2023-04-30T07:57:43.175Z,5.87
2023-04-30T08:00:48.289Z,5.67
2023-04-30T08:03:51.444Z,5.80
2023-04-30T08:06:54.590Z,6.00
2023-04-30T08:09:58.962Z,5.83
2023-04-30T08:13:01.989Z,5.87
2023-04-30T08:16:07.298Z,5.93
2023-04-30T08:19:10.410Z,6.33
2023-04-30T08:22:13.799Z,4.27
2023-04-30T08:25:18.272Z,4.70
2023-04-30T08:28:21.522Z,5.30
2023-04-30T08:31:24.719Z,5.07
2023-04-30T08:34:27.789Z,4.53
2023-04-30T08:37:30.972Z,5.03
2023-04-30T08:40:50.957Z,5.37
2023-04-30T08:43:57.092Z,4.23
2023-04-30T08:47:01.503Z,4.30
2023-04-30T08:50:04.804Z,4.97
2023-04-30T08:53:09.728Z,4.67
2023-04-30T08:56:14.113Z,4.53
2023-04-30T08:59:17.126Z,4.00
2023-04-30T09:02:20.397Z,4.67
2023-04-30T09:05:23.691Z,5.10
2023-04-30T09:08:43.083Z,4.60
2023-04-30T09:11:47.481Z,5.07
2023-04-30T09:15:09.010Z,4.97
2023-04-30T09:18:17.465Z,4.67
2023-04-30T09:21:33.670Z,4.73
2023-04-30T09:24:52.360Z,3.93
2023-04-30T09:28:11.395Z,4.33
2023-04-30T09:31:21.238Z,4.33
2023-04-30T09:34:35.809Z,4.17
2023-04-30T09:37:39.435Z,3.87
2023-04-30T09:40:43.493Z,4.10
2023-04-30T09:43:50.164Z,4.57
2023-04-30T09:46:54.142Z,4.10
2023-04-30T09:49:57.420Z,4.03
2023-04-30T09:53:08.616Z,4.00
2023-04-30T09:56:15.690Z,4.57
2023-04-30T09:59:23.138Z,3.70
2023-04-30T10:02:26.979Z,4.13
2023-04-30T10:05:30.227Z,3.95
2023-04-30T10:08:42.596Z,4.20
2023-04-30T10:11:55.815Z,3.83
2023-04-30T10:15:09.547Z,3.50
2023-04-30T10:18:19.350Z,3.25
2023-04-30T10:21:26.974Z,4.17
2023-04-30T10:24:31.154Z,3.63
2023-04-30T10:27:34.297Z,3.75
2023-04-30T10:30:39.456Z,4.07
2023-04-30T10:33:52.267Z,4.47
2023-04-30T10:37:00.120Z,4.10
2023-04-30T10:40:05.076Z,4.55
2023-04-30T10:43:08.155Z,3.85
2023-04-30T10:46:12.642Z,6.30
2023-04-30T10:49:16.065Z,3.95
2023-04-30T10:52:30.597Z,4.07
2023-04-30T10:55:39.975Z,4.20
2023-04-30T10:58:44.161Z,4.38
2023-04-30T11:02:02.403Z,3.50
2023-04-30T11:05:14.558Z,4.00
2023-04-30T11:08:18.182Z,3.80
2023-04-30T11:11:22.079Z,3.92
2023-04-30T11:14:25.568Z,4.10
2023-04-30T11:17:30.185Z,4.35
2023-04-30T11:20:33.406Z,3.88
2023-04-30T11:23:40.366Z,3.85
2023-04-30T11:27:07.165Z,3.50
2023-04-30T11:30:15.561Z,4.60
2023-04-30T11:33:20.504Z,3.60
2023-04-30T11:36:23.619Z,3.72
2023-04-30T11:39:27.937Z,4.25
2023-04-30T11:42:34.717Z,3.95
2023-04-30T11:45:40.445Z,3.55
2023-04-30T11:48:46.698Z,4.25
2023-04-30T11:51:53.874Z,3.75
2023-04-30T11:55:01.010Z,3.80
2023-04-30T11:58:04.555Z,3.38
2023-04-30T12:01:09.635Z,3.90
2023-04-30T12:04:14.886Z,4.28
2023-04-30T12:07:17.986Z,3.65
2023-04-30T12:10:21.610Z,4.60
2023-04-30T12:13:24.656Z,4.68
2023-04-30T12:16:39.474Z,4.60
2023-04-30T12:19:43.815Z,4.00
2023-04-30T12:22:47.315Z,3.63
2023-04-30T12:25:53.215Z,3.88
2023-04-30T12:28:57.285Z,4.20
2023-04-30T12:32:01.343Z,4.60
2023-04-30T12:35:07.705Z,3.67
2023-04-30T12:38:10.727Z,4.65
2023-04-30T12:41:15.355Z,3.97
2023-04-30T12:44:20.901Z,4.13
2023-04-30T12:47:26.187Z,4.25
2023-04-30T12:50:31.060Z,4.15
2023-04-30T12:53:34.187Z,9.55
2023-04-30T12:56:37.415Z,4.63
2023-04-30T12:59:58.911Z,4.22
2023-04-30T13:03:02.025Z,3.65
2023-04-30T13:06:10.003Z,3.83
2023-04-30T13:09:13.287Z,3.60
2023-04-30T13:12:16.310Z,4.10
2023-04-30T13:15:19.782Z,3.95
2023-04-30T13:18:23.373Z,4.40
2023-04-30T13:21:28.009Z,5.13
2023-04-30T13:24:31.387Z,4.18
2023-04-30T13:27:34.575Z,4.72
2023-04-30T13:30:43.248Z,3.97
2023-04-30T13:33:46.317Z,3.95
2023-04-30T13:36:52.010Z,3.95
2023-04-30T13:39:55.332Z,4.07
2023-04-30T13:42:58.590Z,3.53
2023-04-30T13:46:01.871Z,4.15
2023-04-30T13:49:05.718Z,4.10
2023-04-30T13:52:16.467Z,4.35
2023-04-30T13:55:19.782Z,3.80
2023-04-30T13:58:22.856Z,4.18
2023-04-30T14:01:26.173Z,4.32
2023-04-30T14:04:30.981Z,3.90
2023-04-30T14:07:35.496Z,4.10
2023-04-30T14:10:38.881Z,4.28
2023-04-30T14:13:45.595Z,4.40
2023-04-30T14:16:51.354Z,3.88
2023-04-30T14:19:55.204Z,4.32
2023-04-30T14:23:01.992Z,4.05
2023-04-30T14:26:06.584Z,3.88
2023-04-30T14:29:10.184Z,3.90
2023-04-30T14:32:15.163Z,4.13
2023-04-30T14:35:25.565Z,3.33
2023-04-30T14:38:30.046Z,3.47
2023-04-30T14:41:37.690Z,4.20
2023-04-30T14:44:41.696Z,3.47
2023-04-30T14:53:35.388Z,3.50
2023-04-30T14:56:39.099Z,3.30
2023-04-30T15:01:01.038Z,3.30
2023-04-30T15:04:04.134Z,3.80
2023-04-30T15:07:07.423Z,3.03
2023-04-30T15:10:12.723Z,3.47
2023-04-30T15:13:16.033Z,3.65
2023-04-30T15:16:19.352Z,3.30
2023-04-30T15:19:22.701Z,3.75
2023-04-30T15:22:25.784Z,3.53
2023-04-30T15:25:30.386Z,3.38
2023-04-30T15:28:33.607Z,3.75
2023-04-30T15:31:36.672Z,3.70
2023-04-30T15:34:40.711Z,3.70
2023-04-30T15:37:44.778Z,3.50
2023-04-30T15:40:49.719Z,3.28
2023-04-30T15:43:52.759Z,3.25
2023-04-30T15:46:56.720Z,3.00
2023-04-30T15:49:59.796Z,3.30
2023-04-30T15:53:02.835Z,3.25
2023-04-30T15:56:11.272Z,3.10
2023-04-30T15:59:17.527Z,3.08
2023-04-30T16:02:22.409Z,4.18
2023-04-30T16:05:25.880Z,3.50
2023-04-30T16:08:29.636Z,3.65
2023-04-30T16:11:34.101Z,3.30
2023-04-30T16:14:37.286Z,3.40
2023-04-30T16:17:40.275Z,3.95
2023-04-30T16:20:43.783Z,3.50
2023-04-30T16:23:50.420Z,3.85
2023-04-30T16:26:58.457Z,3.60
2023-04-30T16:30:01.981Z,3.45
2023-04-30T16:33:05.502Z,3.60
2023-04-30T16:36:08.614Z,3.90
2023-04-30T16:39:12.359Z,3.78
2023-04-30T16:42:16.739Z,4.03
2023-04-30T16:45:19.725Z,3.90
2023-04-30T16:48:22.970Z,3.83
2023-04-30T16:51:27.303Z,3.35
2023-04-30T16:54:30.504Z,3.60
2023-04-30T16:57:34.928Z,3.58
2023-04-30T17:00:38.016Z,4.55
2023-04-30T17:03:41.192Z,3.83
2023-04-30T17:06:44.421Z,3.80
2023-04-30T17:09:47.715Z,3.90
2023-04-30T17:12:52.280Z,3.38
2023-04-30T17:16:01.446Z,3.53
2023-04-30T17:19:05.548Z,3.40
2023-04-30T17:22:09.599Z,3.90
2023-04-30T17:25:12.951Z,3.83
2023-04-30T17:28:17.632Z,4.30
2023-04-30T17:31:20.704Z,3.63
2023-04-30T17:34:23.992Z,4.10
2023-04-30T17:37:27.150Z,3.73
2023-04-30T17:40:31.445Z,3.27
2023-04-30T17:43:35.845Z,3.57
2023-04-30T17:46:39.585Z,3.30
2023-04-30T17:49:42.681Z,3.60
2023-04-30T17:52:45.961Z,3.73
2023-04-30T17:55:49.084Z,5.70
2023-04-30T17:58:53.402Z,4.53
2023-04-30T18:01:56.435Z,10.83
2023-04-30T18:04:59.524Z,3.73
2023-04-30T18:08:02.911Z,3.70
2023-04-30T18:11:08.541Z,3.97
2023-04-30T18:14:12.913Z,3.90
2023-04-30T18:17:16.521Z,3.97
2023-04-30T18:20:19.762Z,4.20
2023-04-30T18:23:24.301Z,5.90
2023-04-30T18:26:27.757Z,4.30
2023-04-30T18:29:32.175Z,4.57
2023-04-30T18:32:35.976Z,5.37
2023-04-30T18:35:42.314Z,5.97
2023-04-30T18:38:45.693Z,4.63
2023-04-30T18:41:49.386Z,5.80
2023-04-30T18:44:54.363Z,6.50
2023-04-30T18:47:57.445Z,7.93
2023-04-30T18:51:00.937Z,6.70
2023-04-30T18:54:03.931Z,7.00
2023-04-30T18:57:07.926Z,6.93
2023-04-30T19:00:15.048Z,6.57
2023-04-30T19:03:18.357Z,6.47
2023-04-30T19:06:23.479Z,5.80
2023-04-30T19:09:26.555Z,5.97
2023-04-30T19:12:29.565Z,6.70
2023-04-30T19:15:33.979Z,6.50
2023-04-30T19:18:39.520Z,6.00
2023-04-30T19:21:42.585Z,6.07
2023-04-30T19:24:45.693Z,6.43
2023-04-30T19:27:48.997Z,5.97
2023-04-30T19:30:54.545Z,6.87
2023-04-30T19:34:01.071Z,7.97
2023-04-30T19:37:04.265Z,8.40
2023-04-30T19:40:14.369Z,9.20
2023-04-30T19:43:20.377Z,12.83
2023-04-30T19:46:25.613Z,14.97
2023-04-30T19:49:29.286Z,12.40
2023-04-30T19:52:32.326Z,12.10
2023-04-30T19:55:35.350Z,9.47
2023-04-30T19:58:38.423Z,9.57
2023-04-30T20:01:43.315Z,8.57
2023-04-30T20:04:46.333Z,8.70
2023-04-30T20:07:49.349Z,8.63
2023-04-30T20:10:57.155Z,8.17
2023-04-30T20:14:00.313Z,8.87
2023-04-30T20:17:04.785Z,9.37
2023-04-30T20:20:09.154Z,8.43
2023-04-30T20:23:20.645Z,10.73
2023-04-30T20:26:27.255Z,9.70
2023-04-30T20:29:30.258Z,9.83
2023-04-30T20:32:38.982Z,9.20
2023-04-30T20:35:47.352Z,9.67
2023-04-30T20:38:56.041Z,9.83
2023-04-30T20:41:59.196Z,11.13
2023-04-30T20:45:04.606Z,11.40
2023-04-30T20:48:10.181Z,12.23
2023-04-30T20:51:13.623Z,12.40
2023-04-30T20:54:17.626Z,12.17
2023-04-30T20:57:20.818Z,12.37
2023-04-30T21:00:23.886Z,11.27
2023-04-30T21:03:28.420Z,10.07
2023-04-30T21:06:31.992Z,11.37
2023-04-30T21:09:35.781Z,11.60
2023-04-30T21:12:38.863Z,11.77
2023-04-30T21:15:43.077Z,12.37
2023-04-30T21:18:48.809Z,13.40
2023-04-30T21:21:51.844Z,12.70
2023-04-30T21:24:55.061Z,14.00
2023-04-30T21:27:58.299Z,15.33
2023-04-30T21:31:07.324Z,15.07
2023-04-30T21:34:11.844Z,13.10
2023-04-30T21:37:17.193Z,14.70
2023-04-30T21:40:20.657Z,16.33
2023-04-30T21:43:23.722Z,18.50
2023-04-30T21:46:26.800Z,18.60
2023-04-30T21:49:31.307Z,19.77
2023-04-30T21:52:34.373Z,18.23
2023-04-30T21:55:37.390Z,18.00
2023-04-30T21:58:40.732Z,12.07
2023-04-30T22:01:43.765Z,10.83
2023-04-30T22:04:48.204Z,10.43
2023-04-30T22:07:51.272Z,9.97
2023-04-30T22:10:58.788Z,9.77
2023-04-30T22:14:01.867Z,9.27
2023-04-30T22:17:05.102Z,9.67
2023-04-30T22:20:10.821Z,10.20
2023-04-30T22:23:13.813Z,9.73
2023-04-30T22:26:16.762Z,8.63
2023-04-30T22:29:19.764Z,8.73
2023-04-30T22:32:22.808Z,9.70
2023-04-30T22:35:28.729Z,9.37
2023-04-30T22:38:32.255Z,9.53
2023-04-30T22:41:35.381Z,10.30
2023-04-30T22:44:38.711Z,10.97
2023-04-30T22:47:43.028Z,9.60
2023-04-30T22:50:47.837Z,10.13
2023-04-30T22:53:50.996Z,10.33
2023-04-30T22:56:55.062Z,10.07
2023-04-30T22:59:58.348Z,10.37
2023-04-30T23:03:01.689Z,9.83
2023-04-30T23:06:06.913Z,9.73
2023-04-30T23:09:10.288Z,9.70
2023-04-30T23:12:13.556Z,10.50
2023-04-30T23:15:17.908Z,9.83
2023-04-30T23:18:21.455Z,9.17
2023-04-30T23:21:26.768Z,9.93
2023-04-30T23:24:35.054Z,10.60
2023-04-30T23:27:38.112Z,10.07
2023-04-30T23:30:41.368Z,10.20
2023-04-30T23:33:44.513Z,10.93
2023-04-30T23:36:48.879Z,11.03
2023-04-30T23:39:51.977Z,9.23
2023-04-30T23:42:54.935Z,9.30
2023-04-30T23:45:58.221Z,8.90
2023-04-30T23:49:01.262Z,8.80
2023-04-30T23:52:06.232Z,8.60
2023-04-30T23:55:12.405Z,8.97
2023-04-30T23:58:15.526Z,8.30
